Time;durP1;ratioP1;P1;durP2;ratioP2;P2;SDS_P1;SDS_P2;PMS_P1;PMS_P2;Temp;Humidity;BMP_temperature;BMP_pressure;BME280_temperature;BME280_humidity;BME280_pressure;Samples;Min_cycle;Max_cycle;Signal;HPM_P1;HPM_P2
2022/04/28 00:01:24;;;;;;;10.20;6.55;;;;;;;5.39;100.00;99601.00;5040487;28;20081;-69
2022/04/28 00:03:50;;;;;;;9.60;6.03;;;;;;;5.35;100.00;99602.31;5045117;28;20024;-69
2022/04/28 00:06:15;;;;;;;9.52;5.95;;;;;;;5.38;100.00;99599.34;5036256;28;20039;-69
2022/04/28 00:08:40;;;;;;;13.65;6.35;;;;;;;5.37;100.00;99581.56;5049321;28;20026;-69
2022/04/28 00:11:06;;;;;;;11.43;6.75;;;;;;;5.32;100.00;99588.34;5046161;28;20021;-69
2022/04/28 00:13:31;;;;;;;9.90;6.30;;;;;;;5.39;100.00;99602.84;5041913;28;20124;-69
2022/04/28 00:15:56;;;;;;;9.27;6.00;;;;;;;5.33;100.00;99603.47;5044365;28;20053;-69
2022/04/28 00:18:22;;;;;;;9.30;6.65;;;;;;;5.34;100.00;99603.31;5041006;28;20489;-68
2022/04/28 00:20:47;;;;;;;9.25;6.20;;;;;;;5.35;100.00;99601.50;5040894;28;20029;-69
2022/04/28 00:23:12;;;;;;;11.10;6.85;;;;;;;5.42;100.00;99591.81;5041887;28;20025;-68
2022/04/28 00:25:37;;;;;;;10.07;5.93;;;;;;;5.41;100.00;99596.34;5051829;28;20029;-69
2022/04/28 00:28:03;;;;;;;8.70;6.03;;;;;;;5.41;100.00;99588.28;5038325;28;20025;-70
2022/04/28 00:30:28;;;;;;;11.13;6.10;;;;;;;5.28;100.00;99585.97;5044398;28;20068;-69
2022/04/28 00:32:54;;;;;;;11.32;7.97;;;;;;;5.49;100.00;99603.66;5045195;28;20044;-69
2022/04/28 00:35:19;;;;;;;13.70;8.75;;;;;;;5.39;100.00;99601.00;5046934;28;20614;-69
2022/04/28 00:37:44;;;;;;;16.77;9.38;;;;;;;5.39;100.00;99587.59;5043757;28;20036;-69
2022/04/28 00:40:10;;;;;;;16.50;10.30;;;;;;;5.45;100.00;99605.78;5040914;28;20040;-69
2022/04/28 00:42:35;;;;;;;19.60;10.82;;;;;;;5.17;100.00;99583.50;5040121;28;20033;-70
2022/04/28 00:45:01;;;;;;;18.45;12.25;;;;;;;5.17;100.00;99607.63;5035959;28;20079;-69
2022/04/28 00:50:38;;;;;;;22.10;12.75;;;;;;;5.12;100.00;99603.72;5039439;28;20034;-69
2022/04/28 00:50:56;;;;;;;22.10;11.52;;;;;;;4.95;100.00;99583.88;5033971;28;20033;-69
2022/04/28 00:52:58;;;;;;;17.08;12.00;;;;;;;4.91;100.00;99591.38;5040390;28;20044;-69
2022/04/28 00:55:23;;;;;;;16.52;11.20;;;;;;;5.11;100.00;99599.34;5043800;28;20029;-69
2022/04/28 00:57:50;;;;;;;18.65;12.10;;;;;;;4.93;100.00;99592.09;5045303;28;20402;-69
2022/04/28 01:00:16;;;;;;;15.75;10.85;;;;;;;5.00;100.00;99605.75;5051412;28;20082;-69
2022/04/28 01:02:41;;;;;;;17.13;11.52;;;;;;;4.96;100.00;99609.72;5042233;28;20028;-69
2022/04/28 01:05:07;;;;;;;17.52;11.20;;;;;;;4.93;100.00;99601.97;5042309;28;20100;-69
2022/04/28 01:07:32;;;;;;;19.58;11.52;;;;;;;4.86;100.00;99600.88;5040285;28;20021;-69
2022/04/28 01:09:58;;;;;;;21.10;10.82;;;;;;;4.88;100.00;99607.78;5034181;28;20032;-69
2022/04/28 01:12:24;;;;;;;16.17;10.50;;;;;;;4.82;100.00;99598.50;5039399;28;20061;-69
2022/04/28 01:14:50;;;;;;;13.68;8.93;;;;;;;4.59;100.00;99581.91;5039370;28;20422;-69
2022/04/28 01:17:16;;;;;;;14.95;8.57;;;;;;;4.75;100.00;99605.41;5047021;28;20040;-69
2022/04/28 01:19:41;;;;;;;12.30;7.70;;;;;;;4.65;100.00;99614.47;5033168;28;20395;-69
2022/04/28 01:22:07;;;;;;;14.88;8.55;;;;;;;4.62;100.00;99615.63;5041150;28;20055;-69
2022/04/28 01:24:33;;;;;;;15.50;9.90;;;;;;;4.75;100.00;99589.34;5048002;28;20060;-69
2022/04/28 01:26:59;;;;;;;12.68;8.45;;;;;;;4.84;100.00;99611.72;5044021;28;20106;-68
2022/04/28 01:29:25;;;;;;;10.38;7.28;;;;;;;4.74;100.00;99611.78;5040641;28;20028;-68
2022/04/28 01:31:51;;;;;;;11.82;7.05;;;;;;;4.54;100.00;99613.66;5034237;28;20025;-68
2022/04/28 01:34:17;;;;;;;9.18;6.57;;;;;;;4.33;100.00;99591.56;5044906;28;20107;-69
2022/04/28 01:36:42;;;;;;;9.10;6.43;;;;;;;4.30;100.00;99614.13;5044588;28;20533;-69
2022/04/28 01:39:08;;;;;;;10.10;6.78;;;;;;;4.25;100.00;99610.19;5037540;28;20025;-69
2022/04/28 01:41:34;;;;;;;11.48;7.15;;;;;;;4.13;100.00;99617.53;5048608;28;20025;-69
2022/04/28 01:43:59;;;;;;;12.65;7.63;;;;;;;4.21;100.00;99623.00;5050874;28;20021;-69
2022/04/28 01:46:25;;;;;;;11.15;6.50;;;;;;;4.16;100.00;99615.41;5038348;28;20040;-69
2022/04/28 01:48:50;;;;;;;14.65;7.43;;;;;;;4.08;100.00;99620.63;5042995;28;20029;-69
2022/04/28 01:56:43;;;;;;;9.77;7.00;;;;;;;3.93;100.00;99628.25;5041945;28;20039;-68
2022/04/28 01:59:08;;;;;;;11.35;7.03;;;;;;;3.93;100.00;99622.91;5049608;28;20029;-69
2022/04/28 02:01:34;;;;;;;9.88;7.03;;;;;;;4.01;100.00;99630.22;5051699;28;20486;-69
2022/04/28 02:03:59;;;;;;;12.27;6.38;;;;;;;3.92;100.00;99621.19;5051361;28;20024;-69
2022/04/28 02:06:25;;;;;;;10.73;6.32;;;;;;;3.97;100.00;99617.25;5043700;28;20541;-69
2022/04/28 02:08:51;;;;;;;9.32;6.35;;;;;;;4.08;100.00;99614.44;5045883;28;20056;-69
2022/04/28 02:11:16;;;;;;;13.35;7.68;;;;;;;4.36;100.00;99623.44;5034776;28;20049;-69
2022/04/28 02:13:42;;;;;;;11.73;6.93;;;;;;;4.29;100.00;99612.44;5043532;28;20036;-69
2022/04/28 02:16:07;;;;;;;12.85;6.85;;;;;;;4.25;100.00;99616.41;5035450;28;20072;-68
2022/04/28 02:18:33;;;;;;;10.20;7.13;;;;;;;4.01;100.00;99603.47;5033148;28;20025;-69
2022/04/28 02:20:58;;;;;;;11.20;7.82;;;;;;;4.02;100.00;99625.72;5045058;28;20055;-69
2022/04/28 02:23:23;;;;;;;12.20;7.68;;;;;;;3.82;100.00;99625.69;5050511;28;20116;-69
2022/04/28 02:25:49;;;;;;;14.63;8.40;;;;;;;3.69;100.00;99617.97;5044166;28;20043;-69
2022/04/28 02:28:14;;;;;;;13.20;8.18;;;;;;;3.54;100.00;99581.88;5045531;28;20031;-69
2022/04/28 02:30:40;;;;;;;15.70;8.38;;;;;;;3.70;100.00;99621.47;5043222;28;20037;-69
2022/04/28 02:33:08;;;;;;;12.95;8.02;;;;;;;3.47;100.00;99599.47;5051610;28;20029;-69
2022/04/28 02:35:34;;;;;;;12.77;8.25;;;;;;;3.51;100.00;99628.50;5046558;28;20056;-69
2022/04/28 02:37:59;;;;;;;17.40;10.20;;;;;;;3.51;100.00;99625.81;5039815;28;20072;-69
2022/04/28 02:40:24;;;;;;;14.27;9.35;;;;;;;3.62;100.00;99630.19;5033210;28;20075;-69
2022/04/28 02:42:49;;;;;;;14.43;9.77;;;;;;;3.54;100.00;99597.94;5038348;28;20045;-69
2022/04/28 02:45:15;;;;;;;13.75;9.63;;;;;;;3.72;100.00;99638.22;5035307;28;20162;-69
2022/04/28 02:47:40;;;;;;;14.95;9.63;;;;;;;3.59;100.00;99618.91;5048638;28;20032;-69
2022/04/28 02:50:11;;;;;;;16.70;9.65;;;;;;;3.64;100.00;99628.25;5048432;28;20120;-69
2022/04/28 02:52:36;;;;;;;16.98;10.38;;;;;;;3.57;100.00;99636.94;5039516;28;20030;-69
2022/04/28 02:55:02;;;;;;;17.05;10.73;;;;;;;3.44;100.00;99627.34;5035204;28;20493;-69
2022/04/28 02:57:27;;;;;;;15.50;10.32;;;;;;;3.41;100.00;99637.47;5036091;28;20075;-69
2022/04/28 02:59:52;;;;;;;20.35;12.57;;;;;;;3.48;100.00;99636.81;5039259;28;20471;-69
2022/04/28 03:02:18;;;;;;;19.60;12.18;;;;;;;3.34;100.00;99615.78;5031830;28;20086;-69
2022/04/28 03:04:43;;;;;;;22.75;14.07;;;;;;;3.60;100.00;99634.00;5039417;28;20032;-69
2022/04/28 03:12:37;;;;;;;26.60;15.82;;;;;;;3.67;100.00;99635.16;5039844;28;20025;-69
2022/04/28 03:15:06;;;;;;;30.17;18.10;;;;;;;3.63;100.00;99629.19;5047338;28;20108;-69
2022/04/28 03:17:33;;;;;;;27.75;18.27;;;;;;;3.57;100.00;99627.09;5047958;28;20437;-69
2022/04/28 03:19:58;;;;;;;25.77;17.08;;;;;;;3.56;100.00;99640.59;5039305;28;20033;-69
2022/04/28 03:22:23;;;;;;;26.67;18.23;;;;;;;3.50;100.00;99645.50;5043473;28;20032;-69
2022/04/28 03:24:49;;;;;;;23.42;15.75;;;;;;;3.33;100.00;99651.53;5047957;28;20510;-69
2022/04/28 03:27:14;;;;;;;27.73;17.73;;;;;;;3.25;100.00;99646.03;5045894;28;20021;-68
2022/04/28 03:29:40;;;;;;;28.85;17.58;;;;;;;3.23;100.00;99646.16;5041666;28;20171;-68
2022/04/28 03:32:08;;;;;;;25.95;17.13;;;;;;;3.19;100.00;99647.38;5033919;28;20025;-69
2022/04/28 03:34:34;;;;;;;27.10;17.40;;;;;;;3.31;100.00;99644.63;5047318;28;20024;-69
2022/04/28 03:36:59;;;;;;;26.92;18.13;;;;;;;3.29;100.00;99650.09;5048046;28;20509;-70
2022/04/28 03:39:24;;;;;;;28.38;16.73;;;;;;;3.34;100.00;99647.03;5045286;28;20037;-69
2022/04/28 03:41:50;;;;;;;26.48;16.23;;;;;;;3.42;100.00;99655.22;5054093;28;20024;-69
2022/04/28 03:44:15;;;;;;;23.98;15.27;;;;;;;3.51;100.00;99654.38;5051953;28;20036;-69
2022/04/28 03:46:40;;;;;;;25.45;14.35;;;;;;;3.32;100.00;99632.94;5040687;28;20096;-69
2022/04/28 03:49:06;;;;;;;31.63;13.88;;;;;;;3.44;100.00;99653.25;5043168;28;20029;-69
2022/04/28 03:51:31;;;;;;;23.80;15.02;;;;;;;3.46;100.00;99641.44;5045262;28;20060;-69
2022/04/28 03:54:00;;;;;;;26.73;15.20;;;;;;;3.45;100.00;99662.97;5042221;28;20033;-68
2022/04/28 03:56:29;;;;;;;19.30;10.68;;;;;;;3.33;100.00;99667.59;5046982;28;20032;-67
2022/04/28 03:58:55;;;;;;;14.25;9.63;;;;;;;3.04;100.00;99638.91;5036000;28;20550;-66
2022/04/28 04:01:20;;;;;;;15.65;10.38;;;;;;;3.04;100.00;99665.66;5048368;28;20020;-66
2022/04/28 04:03:45;;;;;;;15.32;8.68;;;;;;;2.96;100.00;99664.59;5048728;28;20029;-68
2022/04/28 04:06:11;;;;;;;14.32;8.00;;;;;;;2.88;100.00;99640.38;5035522;28;20471;-69
2022/04/28 04:08:36;;;;;;;13.25;7.97;;;;;;;2.93;100.00;99656.84;5042122;28;20036;-69
2022/04/28 04:11:01;;;;;;;12.38;7.97;;;;;;;2.91;100.00;99653.47;5044810;28;20029;-70
2022/04/28 04:13:27;;;;;;;13.50;9.07;;;;;;;2.75;100.00;99641.47;5042033;28;20043;-71
2022/04/28 04:15:52;;;;;;;14.02;8.63;;;;;;;2.95;100.00;99668.25;5039462;28;20029;-68
2022/04/28 04:18:18;;;;;;;15.10;9.05;;;;;;;2.94;100.00;99671.94;5039645;28;20101;-74
2022/04/28 04:20:43;;;;;;;13.38;9.40;;;;;;;2.91;100.00;99662.34;5044675;28;20022;-75
2022/04/28 04:23:08;;;;;;;17.40;9.90;;;;;;;2.83;100.00;99651.47;5045757;28;20078;-71
2022/04/28 04:25:34;;;;;;;16.33;9.45;;;;;;;2.85;100.00;99647.66;5035071;28;20104;-69
2022/04/28 04:27:59;;;;;;;15.48;10.00;;;;;;;2.89;100.00;99663.47;5045528;28;20522;-76
2022/04/28 04:33:08;;;;;;;21.35;11.95;;;;;;;3.03;100.00;99668.44;5049789;28;20044;-71
2022/04/28 04:35:33;;;;;;;22.13;11.55;;;;;;;3.06;100.00;99673.50;5047999;28;20024;-71
2022/04/28 04:37:59;;;;;;;15.77;10.95;;;;;;;3.17;100.00;99688.63;5044739;28;20029;-66
2022/04/28 04:40:24;;;;;;;14.60;9.77;;;;;;;3.10;100.00;99669.59;5043345;28;20017;-73
2022/04/28 04:42:49;;;;;;;16.17;9.90;;;;;;;3.27;100.00;99695.72;5036210;28;20124;-69
2022/04/28 04:45:15;;;;;;;16.08;10.18;;;;;;;3.21;100.00;99677.53;5049245;28;20024;-65
2022/04/28 04:47:40;;;;;;;15.60;10.02;;;;;;;3.42;100.00;99692.66;5047128;28;20039;-69
2022/04/28 04:50:08;;;;;;;15.70;10.73;;;;;;;3.57;100.00;99707.34;5051714;28;20028;-71
2022/04/28 04:52:34;;;;;;;19.40;10.70;;;;;;;3.66;100.00;99708.34;5042752;28;20029;-70
2022/04/28 04:55:00;;;;;;;18.88;10.82;;;;;;;3.69;100.00;99687.53;5033548;28;20038;-70
2022/04/28 04:57:26;;;;;;;18.00;10.30;;;;;;;3.91;100.00;99710.53;5044020;28;20459;-68
2022/04/28 04:59:51;;;;;;;17.15;10.68;;;;;;;3.81;100.00;99669.50;5039114;28;20032;-70
2022/04/28 05:02:17;;;;;;;20.88;11.75;;;;;;;4.12;100.00;99721.13;5042165;28;20021;-66
2022/04/28 05:04:42;;;;;;;41.05;16.45;;;;;;;4.17;100.00;99697.47;5045365;28;20029;-66
2022/04/28 05:07:07;;;;;;;37.00;15.52;;;;;;;4.33;100.00;99717.47;5047740;28;20029;-66
2022/04/28 05:09:34;;;;;;;27.60;13.95;;;;;;;4.29;100.00;99705.34;5048242;28;20021;-68
2022/04/28 05:11:59;;;;;;;27.10;13.35;;;;;;;4.36;100.00;99701.97;5045020;28;20024;-69
2022/04/28 05:14:24;;;;;;;18.30;11.70;;;;;;;4.50;100.00;99714.06;5045888;28;20037;-80
2022/04/28 05:16:50;;;;;;;22.50;11.90;;;;;;;4.75;100.00;99730.56;5042862;28;20036;-70
2022/04/28 05:19:15;;;;;;;17.13;11.05;;;;;;;4.82;100.00;99712.91;5056443;28;20051;-75
2022/04/28 05:21:41;;;;;;;18.38;11.25;;;;;;;4.98;100.00;99715.84;5053642;28;20032;-65
2022/04/28 05:24:06;;;;;;;17.38;10.60;;;;;;;5.24;100.00;99744.72;5045033;28;20028;-64
2022/04/28 05:26:31;;;;;;;16.13;10.40;;;;;;;5.32;100.00;99719.81;5042034;28;20063;-65
2022/04/28 05:28:57;;;;;;;15.07;10.25;;;;;;;5.69;100.00;99746.66;5036389;28;20031;-68
2022/04/28 05:31:22;;;;;;;18.13;9.70;;;;;;;5.76;100.00;99734.31;5050651;28;20013;-73
2022/04/28 05:33:47;;;;;;;16.40;9.50;;;;;;;5.94;100.00;99729.00;5041329;28;20029;-73
2022/04/28 05:36:15;;;;;;;16.90;10.80;;;;;;;6.09;100.00;99734.72;5042795;28;20063;-71
2022/04/28 05:38:41;;;;;;;13.23;9.32;;;;;;;6.27;100.00;99745.50;5045723;28;20032;-75
2022/04/28 05:41:07;;;;;;;13.57;9.15;;;;;;;6.65;100.00;99755.06;5042572;28;20561;-68
2022/04/28 05:46:18;;;;;;;18.42;9.57;;;;;;;7.14;97.46;99751.94;5044594;28;20111;-73
2022/04/28 05:48:44;;;;;;;19.33;10.30;;;;;;;7.25;93.88;99743.59;5050822;28;20037;-73
2022/04/28 05:51:11;;;;;;;15.75;9.75;;;;;;;7.40;92.32;99749.25;5049059;28;20104;-68
2022/04/28 05:53:37;;;;;;;17.48;9.77;;;;;;;7.59;90.82;99753.53;5039987;28;20095;-72
2022/04/28 05:56:03;;;;;;;14.38;9.98;;;;;;;7.75;91.78;99739.28;5048759;28;20036;-72
2022/04/28 05:58:28;;;;;;;16.85;9.57;;;;;;;7.78;91.22;99736.28;5046278;28;20027;-73
2022/04/28 06:00:54;;;;;;;14.48;9.85;;;;;;;8.27;87.51;99745.34;5040089;28;20429;-72
2022/04/28 06:03:19;;;;;;;15.80;9.10;;;;;;;8.64;84.76;99762.13;5040175;28;20453;-70
2022/04/28 06:05:44;;;;;;;12.50;9.00;;;;;;;8.93;84.03;99738.22;5050492;28;20083;-70
2022/04/28 06:08:10;;;;;;;15.07;8.40;;;;;;;9.93;80.22;99758.53;5043417;28;20029;-67
2022/04/28 06:10:35;;;;;;;10.65;7.78;;;;;;;11.80;72.32;99761.59;5035545;28;20030;-66
2022/04/28 06:13:00;;;;;;;16.05;8.77;;;;;;;13.72;61.31;99748.25;5036800;28;20029;-66
2022/04/28 06:15:25;;;;;;;11.45;7.68;;;;;;;16.00;53.71;99743.72;5038931;28;20453;-74
2022/04/28 06:17:51;;;;;;;11.65;7.22;;;;;;;18.11;48.42;99725.03;5037853;28;20029;-73
2022/04/28 06:20:16;;;;;;;9.55;7.50;;;;;;;18.96;44.80;99724.06;5042225;28;20112;-73
2022/04/28 06:22:42;;;;;;;10.40;7.35;;;;;;;20.35;42.73;99739.00;5042404;28;20082;-73
2022/04/28 06:25:07;;;;;;;11.90;7.07;;;;;;;20.77;41.62;99749.72;5043507;28;20025;-73
2022/04/28 06:27:34;;;;;;;10.82;6.38;;;;;;;21.22;38.55;99752.47;5046751;28;20459;-71
2022/04/28 06:29:59;;;;;;;8.07;6.53;;;;;;;22.14;38.02;99757.66;5048631;28;20036;-71
2022/04/28 06:32:25;;;;;;;11.18;5.60;;;;;;;22.84;36.19;99756.00;5045213;28;20033;-69
2022/04/28 06:34:50;;;;;;;7.80;5.25;;;;;;;23.60;35.31;99758.59;5042476;28;20037;-71
2022/04/28 06:37:15;;;;;;;7.32;5.88;;;;;;;24.04;33.62;99769.41;5040539;28;20048;-71
2022/04/28 06:39:41;;;;;;;8.48;6.40;;;;;;;23.56;34.24;99738.16;5040316;28;20025;-73
2022/04/28 06:42:07;;;;;;;7.15;5.85;;;;;;;24.08;34.39;99767.78;5047942;28;20029;-66
2022/04/28 06:44:33;;;;;;;7.68;5.82;;;;;;;24.06;32.69;99751.44;5046660;28;20181;-74
2022/04/28 06:46:58;;;;;;;7.13;6.40;;;;;;;24.43;33.46;99760.72;5042232;28;20023;-73
2022/04/28 06:49:23;;;;;;;6.68;5.47;;;;;;;26.22;31.25;99760.78;5041449;28;20021;-68
2022/04/28 06:51:49;;;;;;;10.43;6.15;;;;;;;25.91;30.00;99752.56;5052455;28;20391;-66
2022/04/28 06:54:14;;;;;;;13.73;6.15;;;;;;;26.14;30.27;99772.44;5053729;28;20063;-64
2022/04/28 06:56:40;;;;;;;8.43;5.70;;;;;;;26.33;29.84;99772.66;5073304;28;20586;-65
2022/04/28 06:59:05;;;;;;;8.13;5.93;;;;;;;25.15;32.24;99770.03;5066830;28;20037;-64
2022/04/28 07:01:31;;;;;;;9.40;5.82;;;;;;;24.81;33.13;99764.16;5053748;28;20025;-64
2022/04/28 07:03:57;;;;;;;8.27;5.50;;;;;;;24.53;33.07;99757.22;5070579;28;20035;-64
2022/04/28 07:06:22;;;;;;;6.97;5.25;;;;;;;24.27;33.84;99776.44;5056080;28;20056;-64
2022/04/28 07:08:47;;;;;;;6.88;5.43;;;;;;;26.22;30.42;99771.88;5048598;28;20041;-64
2022/04/28 07:11:13;;;;;;;9.20;5.60;;;;;;;26.58;30.63;99774.53;5044962;28;20051;-64
2022/04/28 07:13:38;;;;;;;7.53;4.88;;;;;;;27.35;29.15;99774.03;5043758;28;20029;-64
2022/04/28 07:16:04;;;;;;;6.68;4.85;;;;;;;28.60;27.70;99755.44;5041643;28;20032;-63
2022/04/28 07:18:30;;;;;;;8.88;4.70;;;;;;;27.40;29.20;99768.41;5041911;28;20551;-71
2022/04/28 07:20:55;;;;;;;5.53;4.68;;;;;;;27.60;28.84;99765.47;5054556;28;20104;-68
2022/04/28 07:23:20;;;;;;;8.02;5.40;;;;;;;27.70;29.00;99770.09;5053075;28;20086;-66
2022/04/28 07:25:46;;;;;;;8.23;5.28;;;;;;;26.71;30.11;99781.41;5046489;28;20048;-67
2022/04/28 07:28:11;;;;;;;8.35;4.70;;;;;;;27.38;28.87;99784.56;5044378;28;20491;-67
2022/04/28 07:30:36;;;;;;;5.65;4.85;;;;;;;25.84;29.96;99774.22;5044415;28;20026;-69
2022/04/28 07:33:01;;;;;;;5.53;4.60;;;;;;;27.38;28.88;99762.31;5041658;28;20094;-65
2022/04/28 07:35:27;;;;;;;6.15;4.75;;;;;;;27.26;28.78;99763.53;5046031;28;20037;-65
2022/04/28 07:37:52;;;;;;;6.82;4.50;;;;;;;27.15;30.17;99781.38;5049540;28;20029;-65
2022/04/28 07:40:18;;;;;;;6.65;4.78;;;;;;;27.48;29.09;99762.22;5043292;28;20029;-66
2022/04/28 07:42:44;;;;;;;6.00;5.03;;;;;;;27.76;28.12;99780.03;5042315;28;20029;-66
2022/04/28 07:45:10;;;;;;;6.72;4.60;;;;;;;28.60;27.91;99777.69;5049597;28;20706;-66
2022/04/28 07:47:36;;;;;;;5.45;4.30;;;;;;;28.07;28.63;99777.78;5047347;28;20029;-66
2022/04/28 07:50:02;;;;;;;6.07;4.32;;;;;;;28.65;28.00;99776.81;5040517;28;20029;-66
2022/04/28 07:52:27;;;;;;;4.68;4.15;;;;;;;29.21;27.84;99777.94;5042424;28;20029;-66
2022/04/28 07:54:52;;;;;;;4.60;4.13;;;;;;;28.74;27.45;99777.81;5046495;28;20025;-66
2022/04/28 07:57:22;;;;;;;3.97;3.25;;;;;;;30.11;26.68;99776.66;5041416;28;20033;-66
2022/04/28 07:59:47;;;;;;;5.15;4.00;;;;;;;30.04;26.02;99769.81;5041007;28;20028;-69
2022/04/28 08:02:13;;;;;;;4.57;4.13;;;;;;;30.30;26.57;99768.19;5042040;28;20022;-72
2022/04/28 08:04:39;;;;;;;4.60;4.10;;;;;;;29.81;26.23;99780.84;5049080;28;20284;-69
2022/04/28 08:07:04;;;;;;;4.07;3.35;;;;;;;30.38;26.34;99779.78;5044108;28;20155;-66
2022/04/28 08:09:30;;;;;;;4.97;4.30;;;;;;;30.25;26.79;99779.47;5033949;28;20419;-66
2022/04/28 08:11:56;;;;;;;4.47;3.97;;;;;;;30.54;24.90;99759.56;5043734;28;20482;-70
2022/04/28 08:14:23;;;;;;;5.82;3.97;;;;;;;30.86;24.73;99776.50;5044021;28;20491;-69
2022/04/28 08:16:49;;;;;;;5.20;4.25;;;;;;;30.35;24.88;99782.03;5044451;28;20398;-69
2022/04/28 08:19:15;;;;;;;4.05;3.58;;;;;;;31.08;23.15;99781.31;5040117;28;20028;-67
2022/04/28 08:21:40;;;;;;;4.18;3.65;;;;;;;30.43;25.24;99782.47;5038983;28;20029;-66
2022/04/28 08:24:05;;;;;;;3.77;3.17;;;;;;;31.40;23.81;99769.06;5045110;28;20029;-72
2022/04/28 08:26:31;;;;;;;7.53;3.90;;;;;;;29.35;24.78;99778.03;5053057;28;20259;-72
2022/04/28 08:28:56;;;;;;;4.75;3.17;;;;;;;30.01;25.37;99787.19;5044267;28;20024;-70
2022/04/28 08:31:22;;;;;;;4.50;3.42;;;;;;;29.83;24.55;99780.53;5038555;28;20026;-69
2022/04/28 08:33:48;;;;;;;4.10;3.40;;;;;;;30.40;24.67;99777.50;5032816;28;20041;-71
2022/04/28 08:36:14;;;;;;;4.30;3.53;;;;;;;30.52;23.33;99786.16;5036722;28;20021;-71
2022/04/28 08:38:39;;;;;;;4.65;2.92;;;;;;;29.16;22.23;99789.19;5044972;28;20029;-73
2022/04/28 08:41:09;;;;;;;5.03;2.45;;;;;;;29.74;19.80;99777.66;5041281;28;20017;-72
2022/04/28 08:43:37;;;;;;;3.53;2.40;;;;;;;27.65;21.50;99757.06;5040767;28;20116;-64
2022/04/28 08:48:52;;;;;;;;;;;;;;;26.60;22.39;99775.91;5034941;28;20028;-64
2022/04/28 08:51:19;;;;;;;3.90;2.53;;;;;;;26.71;22.23;99784.16;5037380;28;19916;-65
2022/04/28 08:53:47;;;;;;;3.58;2.55;;;;;;;26.27;22.82;99782.13;5040399;28;20032;-67
2022/04/28 08:56:13;;;;;;;4.03;2.60;;;;;;;24.75;24.92;99791.00;5038143;28;20508;-67
2022/04/28 08:58:39;;;;;;;5.80;2.42;;;;;;;25.77;24.53;99768.09;5041916;28;20037;-70
2022/04/28 09:01:04;;;;;;;2.97;2.55;;;;;;;26.43;22.99;99787.31;5042014;28;20363;-67
2022/04/28 09:03:30;;;;;;;6.07;2.45;;;;;;;26.37;23.76;99780.13;5044753;28;20033;-72
2022/04/28 09:05:55;;;;;;;7.28;2.97;;;;;;;26.34;23.57;99777.09;5047807;28;20017;-66
2022/04/28 09:08:20;;;;;;;3.38;2.30;;;;;;;26.11;22.91;99784.13;5046116;28;20033;-67
2022/04/28 09:10:46;;;;;;;5.72;2.53;;;;;;;26.82;23.17;99792.13;5043817;28;20032;-73
2022/04/28 09:15:56;;;;;;;4.82;2.30;;;;;;;28.35;21.21;99789.16;5044623;28;20388;-67
2022/04/28 09:18:23;;;;;;;3.97;2.20;;;;;;;28.81;21.06;99794.13;5036717;28;20039;-75
2022/04/28 09:20:50;;;;;;;4.28;1.90;;;;;;;29.23;20.87;99792.41;5037205;28;20032;-66
2022/04/28 09:23:16;;;;;;;2.72;2.08;;;;;;;30.02;19.68;99783.25;5033883;28;20509;-71
2022/04/28 09:25:42;;;;;;;9.25;2.47;;;;;;;29.36;19.67;99766.56;5035635;28;20033;-69
2022/04/28 09:28:11;;;;;;;3.60;2.13;;;;;;;30.57;19.62;99784.06;5044597;28;20036;-68
2022/04/28 09:30:49;;;;;;;3.30;2.08;;;;;;;30.51;19.20;99778.94;5036189;28;20026;-69
2022/04/28 09:33:18;;;;;;;4.88;2.30;;;;;;;30.19;19.62;99783.47;5055720;28;20064;-67
2022/04/28 09:35:53;;;;;;;4.07;2.08;;;;;;;29.26;19.08;99780.66;5050339;28;20048;-68
2022/04/28 09:38:20;;;;;;;2.85;1.80;;;;;;;30.19;19.60;99765.91;5041180;28;20033;-67
2022/04/28 09:43:32;;;;;;;3.88;2.20;;;;;;;30.02;19.26;99777.66;5024814;28;20054;-71
2022/04/28 09:45:58;;;;;;;3.05;2.00;;;;;;;29.96;18.82;99767.75;5037923;28;20095;-71
2022/04/28 09:48:28;;;;;;;2.80;1.90;;;;;;;29.56;19.66;99768.16;5023677;28;20487;-66
2022/04/28 09:50:59;;;;;;;2.88;1.88;;;;;;;27.91;19.84;99756.84;5019249;28;20037;-66
2022/04/28 09:53:27;;;;;;;2.83;2.13;;;;;;;27.56;20.14;99775.50;5020857;28;20029;-66
2022/04/28 09:55:53;;;;;;;3.17;2.15;;;;;;;27.37;21.42;99755.09;5019753;28;20029;-65
2022/04/28 09:58:21;;;;;;;5.00;2.00;;;;;;;26.77;22.08;99780.25;5024798;28;20048;-66
2022/04/28 10:00:46;;;;;;;2.90;1.90;;;;;;;27.58;20.47;99767.69;5023648;28;20084;-65
2022/04/28 10:03:12;;;;;;;2.67;2.00;;;;;;;27.83;21.31;99749.16;5023032;28;20438;-65
2022/04/28 10:05:38;;;;;;;2.95;2.03;;;;;;;29.56;19.03;99754.22;5029124;28;20030;-66
2022/04/28 10:08:05;;;;;;;2.58;1.90;;;;;;;28.60;19.89;99758.22;5023634;28;20037;-66
2022/04/28 10:10:31;;;;;;;5.63;1.73;;;;;;;28.99;19.16;99767.41;5022467;28;20095;-69
2022/04/28 10:12:59;;;;;;;4.38;1.90;;;;;;;27.68;18.68;99764.00;5029504;28;20033;-67
2022/04/28 10:15:26;;;;;;;3.27;1.90;;;;;;;26.98;19.37;99762.31;5013302;28;20104;-66
2022/04/28 10:17:59;;;;;;;2.13;1.55;;;;;;;27.18;19.70;99769.72;5028310;28;20511;-68
2022/04/28 10:20:28;;;;;;;1.85;1.52;;;;;;;27.14;19.97;99765.00;5019516;28;20044;-67
2022/04/28 10:22:56;;;;;;;3.58;2.05;;;;;;;27.12;20.64;99768.06;5022216;28;20105;-67
2022/04/28 10:33:46;;;;;;;3.47;1.90;;;;;;;26.44;21.61;99749.31;5019412;28;20068;-67
2022/04/28 10:36:20;;;;;;;4.25;2.00;;;;;;;27.72;21.16;99752.00;5023787;28;20073;-67
2022/04/28 10:39:08;;;;;;;3.47;2.17;;;;;;;25.90;22.24;99762.00;5022886;28;20483;-66
2022/04/28 10:41:34;;;;;;;3.38;2.30;;;;;;;26.10;22.39;99735.31;5023845;28;20029;-67
2022/04/28 10:44:00;;;;;;;5.70;1.85;;;;;;;27.59;21.50;99749.91;5030127;28;20056;-67
2022/04/28 10:46:29;;;;;;;2.65;2.05;;;;;;;27.90;20.84;99746.81;5031478;28;20029;-67
2022/04/28 10:49:02;;;;;;;2.97;1.95;;;;;;;28.39;21.24;99757.63;5025430;28;20041;-67
2022/04/28 10:51:30;;;;;;;2.80;1.83;;;;;;;29.73;19.66;99748.06;5034522;28;20041;-66
2022/04/28 10:54:01;;;;;;;2.63;2.00;;;;;;;28.84;20.02;99751.75;5012412;28;20149;-67
2022/04/28 10:56:39;;;;;;;3.75;2.10;;;;;;;28.84;20.30;99751.75;5020160;28;20116;-66
2022/04/28 10:59:31;;;;;;;2.72;1.83;;;;;;;28.86;21.36;99757.84;5018359;28;20031;-66
2022/04/28 11:02:17;;;;;;;4.88;2.05;;;;;;;29.83;19.85;99747.06;5014630;28;20061;-68
2022/04/28 11:04:45;;;;;;;2.20;1.63;;;;;;;29.09;20.63;99758.09;5022099;28;20030;-67
2022/04/28 11:07:14;;;;;;;3.13;2.10;;;;;;;28.80;20.23;99759.88;5012691;28;20029;-68
2022/04/28 11:09:41;;;;;;;6.00;1.77;;;;;;;29.52;19.67;99757.94;5021618;28;20041;-69
2022/04/28 11:12:09;;;;;;;2.05;1.83;;;;;;;29.78;19.10;99750.78;5021887;28;20076;-70
2022/04/28 11:15:03;;;;;;;2.63;1.95;;;;;;;28.91;20.31;99759.75;5022933;28;20057;-69
2022/04/28 11:17:33;;;;;;;2.65;1.85;;;;;;;29.00;19.41;99749.56;5026550;28;20037;-69
2022/04/28 11:20:03;;;;;;;2.55;1.70;;;;;;;27.29;20.76;99754.59;5025123;28;20060;-67
2022/04/28 11:22:29;;;;;;;3.72;1.60;;;;;;;29.46;21.61;99755.22;5028177;28;20483;-67
2022/04/28 11:24:56;;;;;;;2.10;1.50;;;;;;;28.53;22.32;99745.78;5022207;28;20037;-72
2022/04/28 11:27:25;;;;;;;3.60;1.70;;;;;;;30.05;20.00;99737.97;5042884;28;20033;-71
2022/04/28 11:29:51;;;;;;;3.33;1.55;;;;;;;29.88;18.27;99742.22;5021207;28;20069;-67
2022/04/28 11:32:17;;;;;;;1.30;1.20;;;;;;;30.54;19.04;99742.81;5015002;28;20038;-69
2022/04/28 11:34:44;;;;;;;3.67;1.60;;;;;;;30.13;20.36;99740.06;5023447;28;20140;-70
2022/04/28 11:37:18;;;;;;;2.90;1.65;;;;;;;30.70;19.86;99748.88;5021999;28;20026;-68
2022/04/28 11:39:47;;;;;;;2.63;1.45;;;;;;;31.46;18.11;99739.81;5026735;28;20398;-73
2022/04/28 11:42:16;;;;;;;3.17;1.50;;;;;;;30.58;18.99;99723.47;5019584;28;20026;-71
2022/04/28 11:44:55;;;;;;;2.97;1.70;;;;;;;28.65;19.50;99745.38;5015758;28;20065;-72
2022/04/28 11:47:22;;;;;;;1.65;1.50;;;;;;;28.02;19.23;99725.00;5020551;28;20115;-69
2022/04/28 11:49:50;;;;;;;3.92;1.92;;;;;;;28.94;19.76;99737.66;5027310;28;20064;-73
2022/04/28 11:52:23;;;;;;;2.25;1.52;;;;;;;29.37;20.08;99734.78;5040014;28;20033;-67
2022/04/28 11:54:57;;;;;;;4.32;1.70;;;;;;;28.41;20.38;99735.91;5016768;28;20118;-66
2022/04/28 11:57:23;;;;;;;3.15;1.60;;;;;;;28.79;21.08;99735.09;5028813;28;20036;-62